sensor_id;sensor_type;location;lat;lon;timestamp;temperature;humidity
41471;DHT22;27211;51.220;5.308;2023-12-29T16:35:57;10.70;99.90
41471;DHT22;27211;51.220;5.308;2023-12-29T16:38:23;10.80;99.90
41471;DHT22;27211;51.220;5.308;2023-12-29T16:40:49;10.90;99.90
41471;DHT22;27211;51.220;5.308;2023-12-29T16:43:14;10.80;99.90
41471;DHT22;27211;51.220;5.308;2023-12-29T16:45:40;10.90;99.90
41471;DHT22;27211;51.220;5.308;2023-12-29T16:48:06;10.90;99.90
41471;DHT22;27211;51.220;5.308;2023-12-29T16:50:31;10.90;99.90
41471;DHT22;27211;51.220;5.308;2023-12-29T16:52:58;10.90;99.90
41471;DHT22;27211;51.220;5.308;2023-12-29T16:55:24;10.90;99.90
41471;DHT22;27211;51.220;5.308;2023-12-29T16:57:50;11.00;99.90
41471;DHT22;27211;51.220;5.308;2023-12-29T17:00:15;11.00;99.90
41471;DHT22;27211;51.220;5.308;2023-12-29T17:02:41;10.90;99.90
41471;DHT22;27211;51.220;5.308;2023-12-29T17:05:07;10.90;99.90
41471;DHT22;27211;51.220;5.308;2023-12-29T17:07:34;11.00;99.90
41471;DHT22;27211;51.220;5.308;2023-12-29T17:09:59;10.90;99.90
41471;DHT22;27211;51.220;5.308;2023-12-29T17:12:25;11.00;99.90
41471;DHT22;27211;51.220;5.308;2023-12-29T17:14:50;11.00;99.90
41471;DHT22;27211;51.220;5.308;2023-12-29T17:17:16;10.90;99.90
41471;DHT22;27211;51.220;5.308;2023-12-29T17:19:42;11.00;99.90
41471;DHT22;27211;51.220;5.308;2023-12-29T17:22:07;11.00;99.90
41471;DHT22;27211;51.220;5.308;2023-12-29T17:24:36;11.10;99.90
41471;DHT22;27211;51.220;5.308;2023-12-29T17:27:04;11.10;99.90
41471;DHT22;27211;51.220;5.308;2023-12-29T17:29:30;11.20;99.90
41471;DHT22;27211;51.220;5.308;2023-12-29T17:31:55;11.20;99.90
41471;DHT22;27211;51.220;5.308;2023-12-29T17:34:21;11.30;99.90
41471;DHT22;27211;51.220;5.308;2023-12-29T17:36:47;11.30;99.90
41471;DHT22;27211;51.220;5.308;2023-12-29T17:39:12;11.30;99.90
41471;DHT22;27211;51.220;5.308;2023-12-29T17:41:38;11.20;99.90
41471;DHT22;27211;51.220;5.308;2023-12-29T17:44:03;11.20;99.90
41471;DHT22;27211;51.220;5.308;2023-12-29T17:46:29;11.30;99.90
41471;DHT22;27211;51.220;5.308;2023-12-29T17:48:55;11.30;99.90
41471;DHT22;27211;51.220;5.308;2023-12-29T17:51:21;11.30;99.90
41471;DHT22;27211;51.220;5.308;2023-12-29T17:53:49;11.20;99.90
41471;DHT22;27211;51.220;5.308;2023-12-29T17:56:15;11.20;99.90
41471;DHT22;27211;51.220;5.308;2023-12-29T17:58:41;11.30;99.90
41471;DHT22;27211;51.220;5.308;2023-12-29T18:01:07;11.30;99.90
41471;DHT22;27211;51.220;5.308;2023-12-29T18:03:32;11.10;99.90
41471;DHT22;27211;51.220;5.308;2023-12-29T18:06:02;11.10;99.90
41471;DHT22;27211;51.220;5.308;2023-12-29T18:08:27;11.00;99.90
41471;DHT22;27211;51.220;5.308;2023-12-29T18:10:53;11.00;99.90
41471;DHT22;27211;51.220;5.308;2023-12-29T18:13:18;11.00;99.90
41471;DHT22;27211;51.220;5.308;2023-12-29T18:15:46;11.00;99.90
41471;DHT22;27211;51.220;5.308;2023-12-29T18:18:11;11.00;99.90
41471;DHT22;27211;51.220;5.308;2023-12-29T18:20:38;11.00;99.90
41471;DHT22;27211;51.220;5.308;2023-12-29T18:23:04;11.10;99.90
41471;DHT22;27211;51.220;5.308;2023-12-29T18:25:32;11.10;99.90
41471;DHT22;27211;51.220;5.308;2023-12-29T18:27:59;11.20;99.90
41471;DHT22;27211;51.220;5.308;2023-12-29T18:30:25;11.10;99.90
41471;DHT22;27211;51.220;5.308;2023-12-29T18:32:50;11.00;99.90
41471;DHT22;27211;51.220;5.308;2023-12-29T18:35:16;11.10;99.90
41471;DHT22;27211;51.220;5.308;2023-12-29T18:37:43;11.10;99.90
41471;DHT22;27211;51.220;5.308;2023-12-29T18:40:09;11.00;99.90
41471;DHT22;27211;51.220;5.308;2023-12-29T18:42:35;11.00;99.90
41471;DHT22;27211;51.220;5.308;2023-12-29T18:45:00;10.90;99.90
41471;DHT22;27211;51.220;5.308;2023-12-29T18:47:26;10.90;99.90
41471;DHT22;27211;51.220;5.308;2023-12-29T18:49:52;11.00;99.90
41471;DHT22;27211;51.220;5.308;2023-12-29T18:52:17;11.00;99.90
41471;DHT22;27211;51.220;5.308;2023-12-29T18:54:43;11.00;99.90
41471;DHT22;27211;51.220;5.308;2023-12-29T18:57:10;11.00;99.90
41471;DHT22;27211;51.220;5.308;2023-12-29T18:59:36;11.00;99.90
41471;DHT22;27211;51.220;5.308;2023-12-29T19:02:02;11.00;99.90
41471;DHT22;27211;51.220;5.308;2023-12-29T19:04:29;11.10;99.90
41471;DHT22;27211;51.220;5.308;2023-12-29T19:06:54;11.20;99.90
41471;DHT22;27211;51.220;5.308;2023-12-29T19:09:20;11.20;99.90
41471;DHT22;27211;51.220;5.308;2023-12-29T19:11:45;11.20;99.90
41471;DHT22;27211;51.220;5.308;2023-12-29T19:14:11;11.20;99.90
41471;DHT22;27211;51.220;5.308;2023-12-29T19:16:37;11.10;99.90
41471;DHT22;27211;51.220;5.308;2023-12-29T19:19:03;11.00;99.90
41471;DHT22;27211;51.220;5.308;2023-12-29T19:21:28;11.00;99.90
41471;DHT22;27211;51.220;5.308;2023-12-29T19:23:55;11.00;99.90
41471;DHT22;27211;51.220;5.308;2023-12-29T19:26:21;11.10;99.90
41471;DHT22;27211;51.220;5.308;2023-12-29T19:28:53;11.20;99.90
41471;DHT22;27211;51.220;5.308;2023-12-29T19:31:20;11.10;99.90
41471;DHT22;27211;51.220;5.308;2023-12-29T19:33:46;11.10;99.90
41471;DHT22;27211;51.220;5.308;2023-12-29T19:36:12;11.10;99.90
41471;DHT22;27211;51.220;5.308;2023-12-29T19:38:43;11.10;99.90
41471;DHT22;27211;51.220;5.308;2023-12-29T19:41:13;11.10;99.90
41471;DHT22;27211;51.220;5.308;2023-12-29T19:43:40;11.00;99.90
41471;DHT22;27211;51.220;5.308;2023-12-29T19:46:06;11.00;99.90
41471;DHT22;27211;51.220;5.308;2023-12-29T19:48:31;11.00;99.90
41471;DHT22;27211;51.220;5.308;2023-12-29T19:50:57;11.10;99.90
41471;DHT22;27211;51.220;5.308;2023-12-29T19:53:25;11.00;99.90
41471;DHT22;27211;51.220;5.308;2023-12-29T19:55:51;10.80;99.90
41471;DHT22;27211;51.220;5.308;2023-12-29T19:58:20;10.90;99.90
41471;DHT22;27211;51.220;5.308;2023-12-29T20:00:46;10.90;99.90
41471;DHT22;27211;51.220;5.308;2023-12-29T20:03:12;10.90;99.90
41471;DHT22;27211;51.220;5.308;2023-12-29T20:05:38;10.80;99.90
41471;DHT22;27211;51.220;5.308;2023-12-29T20:08:06;10.70;99.90
41471;DHT22;27211;51.220;5.308;2023-12-29T20:10:32;10.70;99.90
41471;DHT22;27211;51.220;5.308;2023-12-29T20:12:58;10.70;99.90
41471;DHT22;27211;51.220;5.308;2023-12-29T20:15:24;10.70;99.90
41471;DHT22;27211;51.220;5.308;2023-12-29T20:17:50;10.70;99.90
41471;DHT22;27211;51.220;5.308;2023-12-29T20:20:15;10.70;99.90
41471;DHT22;27211;51.220;5.308;2023-12-29T20:22:42;10.70;99.90
41471;DHT22;27211;51.220;5.308;2023-12-29T20:25:09;10.70;99.90
41471;DHT22;27211;51.220;5.308;2023-12-29T20:27:35;10.70;99.90
41471;DHT22;27211;51.220;5.308;2023-12-29T20:30:01;10.70;99.90
41471;DHT22;27211;51.220;5.308;2023-12-29T20:32:30;10.70;99.90
41471;DHT22;27211;51.220;5.308;2023-12-29T20:34:55;10.60;99.90
41471;DHT22;27211;51.220;5.308;2023-12-29T20:37:21;10.60;99.90
41471;DHT22;27211;51.220;5.308;2023-12-29T20:39:46;10.60;99.90
41471;DHT22;27211;51.220;5.308;2023-12-29T20:42:12;10.50;99.90
41471;DHT22;27211;51.220;5.308;2023-12-29T20:44:37;10.50;99.90
41471;DHT22;27211;51.220;5.308;2023-12-29T20:47:03;10.50;99.90
41471;DHT22;27211;51.220;5.308;2023-12-29T20:49:29;10.40;99.90
41471;DHT22;27211;51.220;5.308;2023-12-29T20:51:54;10.50;99.90
41471;DHT22;27211;51.220;5.308;2023-12-29T20:54:20;10.50;99.90
41471;DHT22;27211;51.220;5.308;2023-12-29T20:56:47;10.40;99.90
41471;DHT22;27211;51.220;5.308;2023-12-29T20:59:13;10.50;99.90
41471;DHT22;27211;51.220;5.308;2023-12-29T21:01:38;10.40;99.90
41471;DHT22;27211;51.220;5.308;2023-12-29T21:04:05;10.40;99.90
41471;DHT22;27211;51.220;5.308;2023-12-29T21:06:34;10.30;99.90
41471;DHT22;27211;51.220;5.308;2023-12-29T21:09:00;10.30;99.90
41471;DHT22;27211;51.220;5.308;2023-12-29T21:11:26;10.30;99.90
41471;DHT22;27211;51.220;5.308;2023-12-29T21:13:52;10.30;99.90
41471;DHT22;27211;51.220;5.308;2023-12-29T21:16:18;10.20;99.90
41471;DHT22;27211;51.220;5.308;2023-12-29T21:18:44;10.20;99.90
41471;DHT22;27211;51.220;5.308;2023-12-29T21:21:09;10.20;99.90
41471;DHT22;27211;51.220;5.308;2023-12-29T21:23:35;10.10;99.90
41471;DHT22;27211;51.220;5.308;2023-12-29T21:26:01;10.10;99.90
41471;DHT22;27211;51.220;5.308;2023-12-29T21:28:27;10.10;99.90
41471;DHT22;27211;51.220;5.308;2023-12-29T21:30:54;10.20;99.90
41471;DHT22;27211;51.220;5.308;2023-12-29T21:33:20;10.20;99.90
41471;DHT22;27211;51.220;5.308;2023-12-29T21:35:45;10.20;99.90
41471;DHT22;27211;51.220;5.308;2023-12-29T21:38:16;10.20;99.90
41471;DHT22;27211;51.220;5.308;2023-12-29T21:40:41;10.20;99.90
41471;DHT22;27211;51.220;5.308;2023-12-29T21:43:07;10.20;99.90
41471;DHT22;27211;51.220;5.308;2023-12-29T21:45:36;10.10;99.90
41471;DHT22;27211;51.220;5.308;2023-12-29T21:48:01;10.00;99.90
41471;DHT22;27211;51.220;5.308;2023-12-29T21:50:27;10.10;99.90
41471;DHT22;27211;51.220;5.308;2023-12-29T21:52:53;10.00;99.90
41471;DHT22;27211;51.220;5.308;2023-12-29T21:55:19;10.00;99.90
41471;DHT22;27211;51.220;5.308;2023-12-29T21:57:48;10.00;99.90
41471;DHT22;27211;51.220;5.308;2023-12-29T22:00:14;9.90;99.90
41471;DHT22;27211;51.220;5.308;2023-12-29T22:02:40;9.90;99.90
41471;DHT22;27211;51.220;5.308;2023-12-29T22:05:06;10.00;99.90
41471;DHT22;27211;51.220;5.308;2023-12-29T22:07:32;10.00;99.90
41471;DHT22;27211;51.220;5.308;2023-12-29T22:09:57;9.90;99.90
41471;DHT22;27211;51.220;5.308;2023-12-29T22:12:23;9.90;99.90
41471;DHT22;27211;51.220;5.308;2023-12-29T22:14:48;9.90;99.90
41471;DHT22;27211;51.220;5.308;2023-12-29T22:17:14;9.90;99.90
41471;DHT22;27211;51.220;5.308;2023-12-29T22:19:39;9.90;99.90
41471;DHT22;27211;51.220;5.308;2023-12-29T22:22:05;9.90;99.90
41471;DHT22;27211;51.220;5.308;2023-12-29T22:24:31;9.90;99.90
41471;DHT22;27211;51.220;5.308;2023-12-29T22:26:57;9.90;99.90
41471;DHT22;27211;51.220;5.308;2023-12-29T22:29:24;9.90;99.90
41471;DHT22;27211;51.220;5.308;2023-12-29T22:31:49;9.80;99.90
41471;DHT22;27211;51.220;5.308;2023-12-29T22:34:15;9.80;99.90
41471;DHT22;27211;51.220;5.308;2023-12-29T22:36:40;9.90;99.90
41471;DHT22;27211;51.220;5.308;2023-12-29T22:39:06;9.90;99.90
41471;DHT22;27211;51.220;5.308;2023-12-29T22:41:32;9.80;99.90
41471;DHT22;27211;51.220;5.308;2023-12-29T22:43:57;9.80;99.90
41471;DHT22;27211;51.220;5.308;2023-12-29T22:46:23;9.80;99.90
41471;DHT22;27211;51.220;5.308;2023-12-29T22:48:50;9.80;99.90
41471;DHT22;27211;51.220;5.308;2023-12-29T22:51:16;9.80;99.90
41471;DHT22;27211;51.220;5.308;2023-12-29T22:53:42;9.70;99.90
41471;DHT22;27211;51.220;5.308;2023-12-29T22:56:07;9.70;99.90
41471;DHT22;27211;51.220;5.308;2023-12-29T22:58:33;9.70;99.90
41471;DHT22;27211;51.220;5.308;2023-12-29T23:00:58;9.80;99.90
41471;DHT22;27211;51.220;5.308;2023-12-29T23:03:24;9.80;99.90
41471;DHT22;27211;51.220;5.308;2023-12-29T23:05:49;9.70;99.90
41471;DHT22;27211;51.220;5.308;2023-12-29T23:08:15;9.70;99.90
41471;DHT22;27211;51.220;5.308;2023-12-29T23:10:41;9.80;99.90
41471;DHT22;27211;51.220;5.308;2023-12-29T23:13:07;9.80;99.90
41471;DHT22;27211;51.220;5.308;2023-12-29T23:15:35;9.70;99.90
41471;DHT22;27211;51.220;5.308;2023-12-29T23:18:02;9.70;99.90
41471;DHT22;27211;51.220;5.308;2023-12-29T23:20:27;9.70;99.90
41471;DHT22;27211;51.220;5.308;2023-12-29T23:22:53;9.80;99.90
41471;DHT22;27211;51.220;5.308;2023-12-29T23:25:19;9.70;99.90
41471;DHT22;27211;51.220;5.308;2023-12-29T23:27:44;9.80;99.90
41471;DHT22;27211;51.220;5.308;2023-12-29T23:30:10;9.80;99.90
41471;DHT22;27211;51.220;5.308;2023-12-29T23:32:37;9.60;99.90
41471;DHT22;27211;51.220;5.308;2023-12-29T23:35:03;9.70;99.90
41471;DHT22;27211;51.220;5.308;2023-12-29T23:37:29;9.80;99.90
41471;DHT22;27211;51.220;5.308;2023-12-29T23:39:55;9.80;99.90
41471;DHT22;27211;51.220;5.308;2023-12-29T23:42:20;9.70;99.90
41471;DHT22;27211;51.220;5.308;2023-12-29T23:44:46;9.70;99.90
41471;DHT22;27211;51.220;5.308;2023-12-29T23:47:12;9.70;99.90
41471;DHT22;27211;51.220;5.308;2023-12-29T23:49:37;9.70;99.90
41471;DHT22;27211;51.220;5.308;2023-12-29T23:52:03;9.70;99.90
41471;DHT22;27211;51.220;5.308;2023-12-29T23:54:29;9.60;99.90
41471;DHT22;27211;51.220;5.308;2023-12-29T23:56:55;9.70;99.90
41471;DHT22;27211;51.220;5.308;2023-12-29T23:59:20;9.60;99.90
